Terminal Aerodrome Forecast
Issued by NWS

Current Version | Previous Version | Graphics & Text | Print | Product List | Glossary On
Versions: 1 2 3 4 5 6 7 8 9 10 11 12 13 14 15 16 17 18 19 20 21 22 23 24
000
FTUS41 KRLX 200903 AAA
TAFCKB
TAF AMD
KCKB 200903Z 2009/2106 19005KT P6SM BKN070 BKN250
     FM201600 22010G19KT P6SM SCT070 SCT250
     FM202200 20006KT P6SM FEW200=

USA.gov is the U.S. government's official web portal to all federal, state and local government web resources and services.